BEL5LY EBBR-LSZH
Flight info
| Callsign | BEL5LY |
|---|---|
| Flight time | N/A |
| Altitude | 31000 |
| Route | ROUSY DCT GTQ DCT BAMEV DCT BLM |
| Aircraft | A320/M-SDE3FGHIRWY/LB1 |
Departure
| Time | 2026-04-30 14:39 |
|---|---|
| Airport | Brussels Airport (EBBR) |
Arrival
| Time | N/A |
|---|---|
| Airport | Zürich Airport (LSZH) |
| Time | Latitude | Longitude | Altitude | Speed | Heading |
|---|---|---|---|---|---|
| 2026-04-30 13:50 | 50.90366 | 4.48878 | 119 ft | 0 kts | 335° |
| 2026-04-30 14:27 | 50.90349 | 4.48890 | 117 ft | 4 kts | 337° |
| 2026-04-30 14:27 | 50.90324 | 4.48906 | 118 ft | 4 kts | 340° |
| 2026-04-30 14:27 | 50.90298 | 4.48920 | 120 ft | 4 kts | 343° |
| 2026-04-30 14:28 | 50.90246 | 4.48938 | 122 ft | 4 kts | 357° |
| 2026-04-30 14:28 | 50.90220 | 4.48934 | 124 ft | 4 kts | 30° |
| 2026-04-30 14:28 | 50.90211 | 4.48922 | 122 ft | 0 kts | 65° |
| 2026-04-30 14:32 | 50.90225 | 4.48970 | 147 ft | 6 kts | 65° |
| 2026-04-30 14:32 | 50.90249 | 4.49054 | 124 ft | 11 kts | 65° |
| 2026-04-30 14:32 | 50.90283 | 4.49173 | 123 ft | 13 kts | 65° |
| 2026-04-30 14:33 | 50.90323 | 4.49310 | 124 ft | 13 kts | 65° |
| 2026-04-30 14:33 | 50.90233 | 4.49384 | 127 ft | 11 kts | 194° |
| 2026-04-30 14:33 | 50.90169 | 4.49359 | 129 ft | 8 kts | 193° |
| 2026-04-30 14:34 | 50.90125 | 4.49341 | 129 ft | 7 kts | 195° |
| 2026-04-30 14:34 | 50.90054 | 4.49311 | 129 ft | 14 kts | 194° |
| 2026-04-30 14:34 | 50.89944 | 4.49265 | 135 ft | 18 kts | 195° |
| 2026-04-30 14:34 | 50.89811 | 4.49212 | 143 ft | 21 kts | 194° |
| 2026-04-30 14:35 | 50.89581 | 4.49187 | 156 ft | 12 kts | 171° |
| 2026-04-30 14:35 | 50.89488 | 4.49157 | 161 ft | 15 kts | 194° |
| 2026-04-30 14:35 | 50.89374 | 4.49110 | 165 ft | 19 kts | 194° |
| 2026-04-30 14:36 | 50.89244 | 4.49056 | 172 ft | 17 kts | 194° |
| 2026-04-30 14:36 | 50.89163 | 4.49026 | 176 ft | 9 kts | 187° |
| 2026-04-30 14:36 | 50.89141 | 4.49077 | 176 ft | 3 kts | 71° |
| 2026-04-30 14:36 | 50.89142 | 4.49078 | 176 ft | 0 kts | 71° |
| 2026-04-30 14:38 | 50.89235 | 4.49476 | 176 ft | 76 kts | 70° |
| 2026-04-30 14:38 | 50.89489 | 4.50577 | 176 ft | 134 kts | 70° |
| 2026-04-30 14:38 | 50.89845 | 4.52102 | 574 ft | 151 kts | 72° |
| 2026-04-30 14:39 | 50.90255 | 4.53619 | 1379 ft | 150 kts | 68° |
| 2026-04-30 14:39 | 50.90738 | 4.55118 | 2149 ft | 152 kts | 67° |
| 2026-04-30 14:39 | 50.91218 | 4.56586 | 2922 ft | 151 kts | 68° |
| 2026-04-30 14:40 | 50.92242 | 4.59762 | 3878 ft | 181 kts | 71° |
| 2026-04-30 14:40 | 50.92830 | 4.61649 | 4221 ft | 201 kts | 69° |
| 2026-04-30 14:40 | 50.93509 | 4.63755 | 4550 ft | 228 kts | 70° |
| 2026-04-30 14:40 | 50.94095 | 4.66199 | 5011 ft | 249 kts | 76° |
| 2026-04-30 14:41 | 50.94636 | 4.68864 | 5791 ft | 257 kts | 77° |
| 2026-04-30 14:41 | 50.95100 | 4.71608 | 6747 ft | 257 kts | 86° |
| 2026-04-30 14:41 | 50.94938 | 4.74407 | 7637 ft | 257 kts | 109° |
| 2026-04-30 14:41 | 50.94048 | 4.76856 | 8496 ft | 261 kts | 131° |
| 2026-04-30 14:42 | 50.92616 | 4.78661 | 9382 ft | 267 kts | 143° |
| 2026-04-30 14:42 | 50.91065 | 4.80295 | 10311 ft | 269 kts | 143° |
| 2026-04-30 14:42 | 50.89467 | 4.81961 | 10848 ft | 285 kts | 144° |
| 2026-04-30 14:42 | 50.87738 | 4.83752 | 11124 ft | 309 kts | 144° |
| 2026-04-30 14:43 | 50.85886 | 4.85662 | 11579 ft | 324 kts | 145° |
| 2026-04-30 14:43 | 50.83977 | 4.87627 | 12287 ft | 330 kts | 145° |
| 2026-04-30 14:43 | 50.82042 | 4.89619 | 13035 ft | 334 kts | 144° |
| 2026-04-30 14:43 | 50.80080 | 4.91646 | 13776 ft | 339 kts | 144° |
| 2026-04-30 14:44 | 50.78096 | 4.93705 | 14459 ft | 343 kts | 144° |
| 2026-04-30 14:44 | 50.76097 | 4.95781 | 15159 ft | 346 kts | 144° |
| 2026-04-30 14:44 | 50.74070 | 4.97883 | 15776 ft | 351 kts | 145° |
| 2026-04-30 14:44 | 50.72017 | 5.00008 | 16457 ft | 354 kts | 144° |
| 2026-04-30 14:45 | 50.69952 | 5.02144 | 17155 ft | 356 kts | 144° |
| 2026-04-30 14:45 | 50.67868 | 5.04295 | 17796 ft | 360 kts | 145° |
| 2026-04-30 14:45 | 50.65766 | 5.06463 | 18452 ft | 363 kts | 145° |
| 2026-04-30 14:45 | 50.63639 | 5.08655 | 18994 ft | 367 kts | 145° |
| 2026-04-30 14:46 | 50.61494 | 5.10863 | 19530 ft | 370 kts | 145° |
| 2026-04-30 14:46 | 50.59326 | 5.13091 | 20063 ft | 373 kts | 144° |
| 2026-04-30 14:46 | 50.57139 | 5.15338 | 20564 ft | 378 kts | 144° |
| 2026-04-30 14:46 | 50.55678 | 5.16840 | 20908 ft | 380 kts | 144° |
| 2026-04-30 14:47 | 50.52702 | 5.19892 | 21630 ft | 384 kts | 144° |
| 2026-04-30 14:47 | 50.50453 | 5.22194 | 22142 ft | 387 kts | 144° |
| 2026-04-30 14:47 | 50.48186 | 5.24510 | 22641 ft | 391 kts | 144° |
| 2026-04-30 14:47 | 50.45900 | 5.26842 | 23136 ft | 394 kts | 144° |
| 2026-04-30 14:48 | 50.43591 | 5.29193 | 23627 ft | 397 kts | 144° |
| 2026-04-30 14:48 | 50.41266 | 5.31559 | 24054 ft | 400 kts | 144° |
| 2026-04-30 14:48 | 50.38926 | 5.33940 | 24464 ft | 403 kts | 144° |
| 2026-04-30 14:48 | 50.36569 | 5.36335 | 24887 ft | 405 kts | 144° |
| 2026-04-30 14:49 | 50.34198 | 5.38736 | 25302 ft | 407 kts | 144° |
| 2026-04-30 14:49 | 50.31816 | 5.41145 | 25706 ft | 409 kts | 144° |
| 2026-04-30 14:49 | 50.29466 | 5.43517 | 26099 ft | 411 kts | 144° |
| 2026-04-30 14:49 | 50.27010 | 5.45999 | 26515 ft | 413 kts | 144° |
| 2026-04-30 14:50 | 50.22172 | 5.50897 | 27306 ft | 417 kts | 144° |
| 2026-04-30 14:50 | 50.19732 | 5.53358 | 27689 ft | 419 kts | 144° |
| 2026-04-30 14:51 | 50.14797 | 5.58312 | 28421 ft | 424 kts | 144° |
| 2026-04-30 14:51 | 50.12308 | 5.60804 | 28786 ft | 426 kts | 144° |
| 2026-04-30 14:51 | 50.07291 | 5.65824 | 29492 ft | 430 kts | 144° |
| 2026-04-30 14:52 | 50.04764 | 5.68347 | 29834 ft | 432 kts | 144° |
| 2026-04-30 14:52 | 49.99687 | 5.73419 | 30480 ft | 436 kts | 144° |
| 2026-04-30 14:52 | 49.97131 | 5.75967 | 30751 ft | 437 kts | 144° |
| 2026-04-30 14:53 | 49.91982 | 5.81078 | 31300 ft | 441 kts | 144° |
| 2026-04-30 14:53 | 49.89401 | 5.83634 | 31677 ft | 439 kts | 144° |
| 2026-04-30 14:54 | 49.84261 | 5.88716 | 32412 ft | 438 kts | 145° |
| 2026-04-30 14:54 | 49.79131 | 5.93783 | 33144 ft | 437 kts | 144° |
| 2026-04-30 14:55 | 49.74028 | 5.98820 | 33868 ft | 435 kts | 144° |
| 2026-04-30 14:55 | 49.71477 | 6.01333 | 34238 ft | 435 kts | 144° |
| 2026-04-30 14:55 | 49.66374 | 6.06341 | 34765 ft | 434 kts | 145° |
| 2026-04-30 14:56 | 49.61272 | 6.11328 | 35217 ft | 434 kts | 145° |
| 2026-04-30 14:57 | 49.54501 | 6.17933 | 35301 ft | 431 kts | 145° |
| 2026-04-30 14:58 | 49.44373 | 6.27784 | 35297 ft | 431 kts | 145° |
| 2026-04-30 14:58 | 49.36750 | 6.35150 | 35285 ft | 431 kts | 145° |
| 2026-04-30 15:00 | 49.24084 | 6.47363 | 35278 ft | 430 kts | 145° |
| 2026-04-30 15:01 | 49.13939 | 6.57066 | 35277 ft | 430 kts | 145° |
| 2026-04-30 15:01 | 49.06328 | 6.64333 | 35275 ft | 430 kts | 145° |
| 2026-04-30 15:02 | 49.01240 | 6.69171 | 35260 ft | 432 kts | 145° |
| 2026-04-30 15:03 | 48.93022 | 6.74964 | 35256 ft | 437 kts | 156° |
| 2026-04-30 15:03 | 48.87348 | 6.78306 | 35257 ft | 437 kts | 155° |
| 2026-04-30 15:04 | 48.73157 | 6.86712 | 35261 ft | 438 kts | 155° |
| 2026-04-30 15:06 | 48.58949 | 6.95051 | 35248 ft | 438 kts | 155° |
| 2026-04-30 15:07 | 48.47549 | 7.01721 | 35194 ft | 440 kts | 155° |
| 2026-04-30 15:07 | 48.41812 | 7.05057 | 33738 ft | 444 kts | 155° |
| 2026-04-30 15:08 | 48.36026 | 7.08416 | 32130 ft | 446 kts | 155° |
| 2026-04-30 15:08 | 48.27476 | 7.13353 | 30400 ft | 433 kts | 155° |
| 2026-04-30 15:09 | 48.21903 | 7.16564 | 29167 ft | 425 kts | 155° |
| 2026-04-30 15:09 | 48.16425 | 7.19719 | 27948 ft | 418 kts | 155° |
| 2026-04-30 15:10 | 48.11074 | 7.22787 | 26852 ft | 411 kts | 156° |
| 2026-04-30 15:11 | 48.00500 | 7.28848 | 24549 ft | 403 kts | 156° |
| 2026-04-30 15:11 | 47.95298 | 7.31814 | 23446 ft | 398 kts | 156° |
| 2026-04-30 15:12 | 47.87624 | 7.36186 | 21822 ft | 389 kts | 156° |
| 2026-04-30 15:13 | 47.82610 | 7.39028 | 20842 ft | 382 kts | 156° |
| 2026-04-30 15:14 | 47.72776 | 7.45526 | 17260 ft | 404 kts | 135° |
| 2026-04-30 15:14 | 47.69751 | 7.56646 | 14951 ft | 394 kts | 90° |
| 2026-04-30 15:16 | 47.69517 | 7.76511 | 11711 ft | 376 kts | 90° |
| 2026-04-30 15:17 | 47.69311 | 7.91565 | 9986 ft | 339 kts | 91° |
| 2026-04-30 15:18 | 47.69070 | 8.07232 | 9254 ft | 278 kts | 91° |
| 2026-04-30 15:19 | 47.68927 | 8.15740 | 8136 ft | 267 kts | 91° |